createdAt,value
2022-12-18T00:01:26.352Z,74.87
2022-12-18T00:03:55.539Z,71.88
2022-12-18T00:06:28.945Z,67.32
2022-12-18T00:08:57.800Z,60.90
2022-12-18T00:11:27.265Z,58.50
2022-12-18T00:13:56.851Z,64.05
2022-12-18T00:16:25.998Z,54.55
2022-12-18T00:19:01.395Z,62.13
2022-12-18T00:21:30.432Z,56.20
2022-12-18T00:23:58.511Z,62.45
2022-12-18T00:26:34.562Z,57.95
2022-12-18T00:29:12.781Z,67.90
2022-12-18T00:31:39.968Z,63.65
2022-12-18T00:34:07.639Z,65.93
2022-12-18T00:36:36.021Z,66.20
2022-12-18T00:39:05.953Z,64.03
2022-12-18T00:41:51.927Z,64.33
2022-12-18T00:44:20.031Z,66.28
2022-12-18T00:46:49.416Z,68.10
2022-12-18T00:49:24.256Z,62.20
2022-12-18T00:51:51.825Z,60.33
2022-12-18T00:54:19.969Z,67.65
2022-12-18T00:56:50.259Z,54.67
2022-12-18T00:59:19.175Z,64.90
2022-12-18T01:01:47.242Z,61.22
2022-12-18T01:04:14.811Z,67.80
2022-12-18T01:06:41.992Z,59.10
2022-12-18T01:09:09.047Z,54.25
2022-12-18T01:11:37.639Z,70.10
2022-12-18T01:14:05.493Z,60.75
2022-12-18T01:16:32.803Z,56.80
2022-12-18T01:19:00.042Z,60.35
2022-12-18T01:21:28.281Z,64.43
2022-12-18T01:23:57.622Z,60.97
2022-12-18T01:26:26.333Z,57.75
2022-12-18T01:28:55.381Z,59.67
2022-12-18T01:31:29.895Z,53.25
2022-12-18T01:33:58.001Z,52.60
2022-12-18T01:36:30.668Z,51.70
2022-12-18T01:39:00.228Z,57.53
2022-12-18T01:41:52.103Z,59.03
2022-12-18T01:44:56.848Z,50.65
2022-12-18T01:47:26.660Z,57.15
2022-12-18T01:49:55.430Z,49.22
2022-12-18T01:52:23.634Z,53.20
2022-12-18T01:54:53.327Z,44.90
2022-12-18T01:57:21.669Z,50.67
2022-12-18T01:59:53.751Z,46.72
2022-12-18T02:02:22.298Z,55.78
2022-12-18T02:04:49.825Z,59.30
2022-12-18T02:08:02.697Z,51.67
2022-12-18T02:10:43.350Z,57.38
2022-12-18T02:13:24.846Z,53.47
2022-12-18T02:16:01.407Z,45.65
2022-12-18T02:18:39.548Z,47.42
2022-12-18T02:21:46.449Z,55.97
2022-12-18T02:24:20.039Z,52.05
2022-12-18T02:26:51.875Z,52.15
2022-12-18T02:29:30.824Z,51.15
2022-12-18T02:32:01.515Z,51.55
2022-12-18T02:34:32.513Z,40.35
2022-12-18T02:37:03.551Z,50.35
2022-12-18T02:39:33.592Z,46.80
2022-12-18T02:42:09.175Z,50.17
2022-12-18T02:44:47.273Z,48.17
2022-12-18T02:47:21.463Z,43.22
2022-12-18T02:50:25.601Z,49.08
2022-12-18T02:53:20.831Z,45.05
2022-12-18T02:56:02.786Z,51.72
2022-12-18T02:58:50.622Z,48.08
2022-12-18T03:01:38.348Z,48.70
2022-12-18T03:04:22.672Z,48.75
2022-12-18T03:06:57.318Z,48.80
2022-12-18T03:09:38.341Z,50.45
2022-12-18T03:12:31.904Z,48.77
2022-12-18T03:15:17.791Z,55.00
2022-12-18T03:17:52.019Z,51.45
2022-12-18T03:20:22.416Z,47.50
2022-12-18T03:22:54.030Z,47.63
2022-12-18T03:25:22.729Z,47.90
2022-12-18T03:27:58.824Z,50.30
2022-12-18T03:30:29.371Z,51.67
2022-12-18T03:33:09.987Z,50.08
2022-12-18T03:35:42.768Z,48.15
2022-12-18T03:38:12.719Z,49.72
2022-12-18T03:41:03.329Z,48.92
2022-12-18T03:44:07.819Z,48.28
2022-12-18T03:46:59.674Z,51.83
2022-12-18T03:49:35.773Z,50.35
2022-12-18T03:52:27.215Z,50.42
2022-12-18T03:54:56.724Z,52.63
2022-12-18T03:57:29.101Z,56.53
2022-12-18T04:00:07.637Z,43.40
2022-12-18T04:03:05.803Z,46.88
2022-12-18T04:05:45.093Z,50.67
2022-12-18T04:08:13.693Z,50.90
2022-12-18T04:10:44.379Z,46.42
2022-12-18T04:13:12.618Z,54.47
2022-12-18T04:15:40.899Z,44.95
2022-12-18T04:18:11.581Z,51.60
2022-12-18T04:20:42.124Z,51.95
2022-12-18T04:23:09.285Z,57.28
2022-12-18T04:25:37.708Z,50.65
2022-12-18T04:28:08.112Z,48.78
2022-12-18T04:30:36.727Z,48.45
2022-12-18T04:33:03.890Z,50.25
2022-12-18T04:35:32.404Z,51.83
2022-12-18T04:37:59.963Z,52.90
2022-12-18T04:40:27.973Z,46.95
2022-12-18T04:42:55.689Z,54.25
2022-12-18T04:45:22.762Z,48.17
2022-12-18T04:47:49.898Z,43.70
2022-12-18T04:50:18.351Z,48.93
2022-12-18T04:52:46.240Z,51.53
2022-12-18T04:55:14.043Z,46.42
2022-12-18T04:57:41.077Z,49.67
2022-12-18T05:00:08.986Z,49.60
2022-12-18T05:02:36.198Z,49.53
2022-12-18T05:05:03.774Z,46.17
2022-12-18T05:07:30.884Z,52.10
2022-12-18T05:09:57.938Z,46.33
2022-12-18T05:12:25.016Z,44.10
2022-12-18T05:14:52.112Z,40.67
2022-12-18T05:17:19.180Z,47.87
2022-12-18T05:19:46.264Z,44.63
2022-12-18T05:22:13.333Z,47.08
2022-12-18T05:24:40.505Z,42.95
2022-12-18T05:27:07.854Z,43.63
2022-12-18T05:29:34.919Z,44.85
2022-12-18T05:32:02.022Z,42.27
2022-12-18T05:34:29.076Z,43.35
2022-12-18T05:36:56.143Z,45.87
2022-12-18T05:39:23.348Z,50.58
2022-12-18T05:41:50.408Z,46.53
2022-12-18T05:44:17.474Z,48.47
2022-12-18T05:46:44.592Z,43.13
2022-12-18T05:49:11.705Z,47.42
2022-12-18T05:51:38.804Z,57.72
2022-12-18T05:54:06.455Z,54.95
2022-12-18T05:56:33.672Z,53.22
2022-12-18T05:59:01.161Z,56.13
2022-12-18T06:01:28.528Z,56.03
2022-12-18T06:03:56.672Z,57.20
2022-12-18T06:06:27.608Z,62.95
2022-12-18T06:08:55.541Z,69.67
2022-12-18T06:11:27.342Z,65.97
2022-12-18T06:13:58.768Z,67.70
2022-12-18T06:16:27.688Z,63.07
2022-12-18T06:18:58.721Z,62.80
2022-12-18T06:21:27.968Z,66.00
2022-12-18T06:23:55.058Z,61.17
2022-12-18T06:26:27.824Z,62.57
2022-12-18T06:28:55.371Z,63.00
2022-12-18T06:31:22.603Z,57.28
2022-12-18T06:33:49.804Z,67.85
2022-12-18T06:36:17.760Z,62.07
2022-12-18T06:38:45.817Z,67.90
2022-12-18T06:41:17.738Z,67.80
2022-12-18T06:43:45.572Z,66.13
2022-12-18T06:46:13.702Z,67.57
2022-12-18T06:48:41.295Z,67.83
2022-12-18T06:51:08.435Z,65.30
2022-12-18T06:53:35.484Z,66.03
2022-12-18T06:56:10.193Z,61.07
2022-12-18T06:58:38.528Z,63.42
2022-12-18T07:01:07.962Z,63.67
2022-12-18T07:03:35.184Z,67.20
2022-12-18T07:06:02.356Z,66.53
2022-12-18T07:08:31.229Z,71.00
2022-12-18T07:10:58.868Z,73.15
2022-12-18T07:13:25.935Z,57.38
2022-12-18T07:15:53.081Z,72.13
2022-12-18T07:18:20.159Z,53.72
2022-12-18T07:20:47.765Z,57.35
2022-12-18T07:23:15.950Z,46.53
2022-12-18T07:25:43.033Z,50.53
2022-12-18T07:28:15.648Z,48.60
2022-12-18T07:30:44.381Z,50.78
2022-12-18T07:33:11.595Z,48.58
2022-12-18T07:35:38.707Z,51.10
2022-12-18T07:38:06.133Z,48.10
2022-12-18T07:40:33.142Z,47.33
2022-12-18T07:43:00.180Z,47.78
2022-12-18T07:45:27.273Z,49.40
2022-12-18T07:47:54.352Z,49.15
2022-12-18T07:50:21.450Z,52.03
2022-12-18T07:52:48.549Z,50.25
2022-12-18T07:55:15.741Z,54.03
2022-12-18T07:57:50.410Z,51.87
2022-12-18T08:00:18.633Z,47.22
2022-12-18T08:02:45.836Z,53.00
2022-12-18T08:05:12.989Z,59.55
2022-12-18T08:07:40.509Z,58.50
2022-12-18T08:10:08.240Z,71.17
2022-12-18T08:12:35.415Z,80.93
2022-12-18T08:15:02.473Z,66.27
2022-12-18T08:17:29.819Z,66.60
2022-12-18T08:19:56.883Z,67.63
2022-12-18T08:22:24.060Z,61.50
2022-12-18T08:24:51.112Z,65.68
2022-12-18T08:27:29.432Z,57.38
2022-12-18T08:29:57.901Z,55.37
2022-12-18T08:32:26.221Z,59.77
2022-12-18T08:34:53.424Z,50.70
2022-12-18T08:37:20.672Z,55.90
2022-12-18T08:39:47.830Z,50.13
2022-12-18T08:42:33.296Z,50.38
2022-12-18T08:45:00.474Z,54.78
2022-12-18T08:47:27.502Z,51.63
2022-12-18T08:49:54.613Z,52.55
2022-12-18T08:52:24.842Z,52.85
2022-12-18T08:54:52.160Z,51.63
2022-12-18T08:57:19.289Z,54.88
2022-12-18T08:59:46.354Z,52.28
2022-12-18T09:02:13.549Z,49.10
2022-12-18T09:04:41.108Z,59.60
2022-12-18T09:07:08.217Z,51.45
2022-12-18T09:09:35.272Z,57.10
2022-12-18T09:12:02.378Z,57.65
2022-12-18T09:14:29.411Z,51.85
2022-12-18T09:16:56.528Z,55.50
2022-12-18T09:19:23.683Z,55.78
2022-12-18T09:21:50.782Z,53.63
2022-12-18T09:24:17.891Z,53.10
2022-12-18T09:26:47.190Z,57.47
2022-12-18T09:29:16.201Z,56.40
2022-12-18T09:31:43.948Z,55.53
2022-12-18T09:34:11.027Z,54.70
2022-12-18T09:36:38.675Z,58.45
2022-12-18T09:39:08.613Z,54.33
2022-12-18T09:41:43.950Z,58.30
2022-12-18T09:44:23.089Z,57.57
2022-12-18T09:47:07.834Z,60.92
2022-12-18T09:49:40.663Z,65.53
2022-12-18T09:52:20.480Z,67.20
2022-12-18T09:54:54.770Z,64.28
2022-12-18T09:57:24.411Z,55.03
2022-12-18T10:00:15.060Z,56.85
2022-12-18T10:02:42.493Z,54.60
2022-12-18T10:05:16.097Z,61.20
2022-12-18T10:07:55.284Z,56.27
2022-12-18T10:10:53.990Z,58.97
2022-12-18T10:13:46.315Z,63.78
2022-12-18T10:16:48.724Z,58.97
2022-12-18T10:19:50.546Z,55.30
2022-12-18T10:22:39.547Z,62.83
2022-12-18T10:25:23.952Z,57.20
2022-12-18T10:27:56.369Z,63.03
2022-12-18T10:30:25.740Z,57.90
2022-12-18T10:32:53.587Z,59.92
2022-12-18T10:35:23.663Z,58.75
2022-12-18T10:38:13.491Z,59.60
2022-12-18T10:40:59.688Z,58.90
2022-12-18T10:43:33.751Z,63.17
2022-12-18T10:46:09.249Z,59.05
2022-12-18T10:48:48.652Z,64.78
2022-12-18T10:51:24.525Z,64.15
2022-12-18T10:54:07.866Z,66.75
2022-12-18T10:56:37.388Z,73.22
2022-12-18T10:59:13.299Z,66.10
2022-12-18T11:01:57.321Z,67.85
2022-12-18T11:04:25.682Z,68.68
2022-12-18T11:07:04.036Z,75.65
2022-12-18T11:09:39.321Z,75.18
2022-12-18T11:12:19.087Z,64.85
2022-12-18T11:14:51.992Z,72.47
2022-12-18T11:17:27.058Z,65.18
2022-12-18T11:19:59.273Z,55.30
2022-12-18T11:22:34.877Z,60.33
2022-12-18T11:25:34.440Z,48.13
2022-12-18T11:27:54.739Z,52.45
2022-12-18T11:30:26.181Z,52.72
2022-12-18T11:33:16.564Z,51.63
2022-12-18T11:35:46.830Z,51.70
2022-12-18T11:38:29.955Z,48.40
2022-12-18T11:41:48.973Z,49.13
2022-12-18T11:44:49.907Z,52.13
2022-12-18T11:47:35.165Z,55.65
2022-12-18T11:50:04.270Z,43.47
2022-12-18T11:52:41.654Z,54.13
2022-12-18T11:55:17.630Z,55.70
2022-12-18T11:57:56.749Z,49.22
2022-12-18T12:00:25.438Z,53.92
2022-12-18T12:03:14.198Z,53.15
2022-12-18T12:05:56.285Z,59.60
2022-12-18T12:08:41.614Z,60.80
2022-12-18T12:11:22.266Z,58.38
2022-12-18T12:14:01.275Z,65.95
2022-12-18T12:16:54.419Z,69.60
2022-12-18T12:19:47.480Z,66.68
2022-12-18T12:22:24.152Z,72.73
2022-12-18T12:25:26.581Z,70.63
2022-12-18T12:28:14.648Z,71.82
2022-12-18T12:30:50.636Z,68.30
2022-12-18T12:33:49.794Z,70.28
2022-12-18T12:36:35.878Z,75.80
2022-12-18T12:39:08.698Z,72.65
2022-12-18T12:41:58.327Z,80.90
2022-12-18T12:44:33.715Z,83.00
2022-12-18T12:47:06.531Z,73.57
2022-12-18T12:49:39.086Z,72.85
2022-12-18T12:52:15.310Z,72.20
2022-12-18T12:54:43.319Z,67.38
2022-12-18T12:57:57.263Z,73.55
2022-12-18T13:00:26.852Z,84.32
2022-12-18T13:03:00.362Z,90.57
2022-12-18T13:05:47.160Z,103.22
2022-12-18T13:08:31.095Z,91.72
2022-12-18T13:11:19.692Z,93.13
2022-12-18T13:13:56.635Z,71.15
2022-12-18T13:16:26.082Z,76.13
2022-12-18T13:18:55.551Z,77.28
2022-12-18T13:21:28.197Z,70.17
2022-12-18T13:23:56.828Z,74.40
2022-12-18T13:26:28.815Z,79.40
2022-12-18T13:28:58.581Z,82.85
2022-12-18T13:31:41.184Z,80.05
2022-12-18T13:34:28.226Z,77.07
2022-12-18T13:37:17.844Z,84.47
2022-12-18T13:39:45.206Z,74.77
2022-12-18T13:42:32.975Z,76.22
2022-12-18T13:45:00.566Z,76.95
2022-12-18T13:47:34.799Z,79.10
2022-12-18T13:53:24.662Z,84.53
2022-12-18T13:55:53.344Z,86.13
2022-12-18T13:58:20.886Z,75.82
2022-12-18T14:00:48.350Z,74.18
2022-12-18T14:03:24.896Z,82.88
2022-12-18T14:06:01.385Z,75.80
2022-12-18T14:08:34.247Z,85.32
2022-12-18T14:11:02.724Z,77.55
2022-12-18T14:13:33.196Z,82.72
2022-12-18T14:16:04.045Z,82.38
2022-12-18T14:18:53.495Z,78.87
2022-12-18T14:21:29.482Z,80.33
2022-12-18T14:24:09.987Z,84.63
2022-12-18T14:26:37.094Z,79.73
2022-12-18T14:29:30.436Z,84.38
2022-12-18T14:32:18.652Z,80.77
2022-12-18T14:34:48.383Z,236.43
2022-12-18T14:37:18.182Z,104.87
2022-12-18T14:40:11.121Z,97.13
2022-12-18T14:42:39.001Z,132.23
2022-12-18T14:45:43.247Z,150.13
2022-12-18T14:48:27.258Z,149.33
2022-12-18T14:51:07.686Z,130.65
2022-12-18T14:53:53.616Z,97.83
2022-12-18T14:56:23.424Z,100.17
2022-12-18T14:58:54.334Z,105.07
2022-12-18T15:01:25.385Z,93.90
2022-12-18T15:03:54.361Z,85.43
2022-12-18T15:06:39.785Z,86.70
2022-12-18T15:09:24.881Z,72.13
2022-12-18T15:11:57.892Z,81.80
2022-12-18T15:14:41.898Z,162.40
2022-12-18T15:17:20.867Z,86.90
2022-12-18T15:19:49.882Z,83.87
2022-12-18T15:22:30.814Z,85.17
2022-12-18T15:24:59.520Z,93.67
2022-12-18T15:27:36.898Z,93.50
2022-12-18T15:30:10.027Z,84.13
2022-12-18T15:32:44.387Z,75.70
2022-12-18T15:37:50.627Z,119.33
2022-12-18T15:40:21.107Z,77.23
2022-12-18T15:43:08.591Z,82.17
2022-12-18T15:45:35.666Z,77.93
2022-12-18T15:48:22.711Z,87.47
2022-12-18T15:50:53.253Z,82.13
2022-12-18T15:53:20.831Z,100.40
2022-12-18T15:56:06.322Z,85.90
2022-12-18T15:58:34.396Z,88.60
2022-12-18T16:01:02.159Z,115.07
2022-12-18T16:03:29.615Z,97.00
2022-12-18T16:05:56.985Z,100.17
2022-12-18T16:08:25.348Z,92.53
2022-12-18T16:10:52.719Z,99.67
2022-12-18T16:13:21.286Z,96.27
2022-12-18T16:15:48.739Z,97.27
2022-12-18T16:18:16.001Z,98.37
2022-12-18T16:20:43.161Z,101.77
2022-12-18T16:23:10.190Z,92.27
2022-12-18T16:25:37.497Z,107.33
2022-12-18T16:28:07.660Z,106.00
2022-12-18T16:30:38.197Z,97.00
2022-12-18T16:33:07.652Z,109.73
2022-12-18T16:35:34.996Z,103.90
2022-12-18T16:38:02.053Z,106.27
2022-12-18T16:40:29.127Z,107.93
2022-12-18T16:42:56.261Z,116.30
2022-12-18T16:45:23.316Z,107.03
2022-12-18T16:47:50.423Z,104.87
2022-12-18T16:50:17.610Z,113.27
2022-12-18T16:52:44.709Z,110.33
2022-12-18T16:55:11.834Z,124.30
2022-12-18T16:57:39.024Z,112.83
2022-12-18T17:00:07.052Z,127.07
2022-12-18T17:02:34.395Z,119.23
2022-12-18T17:05:01.949Z,119.67
2022-12-18T17:07:29.307Z,122.53
2022-12-18T17:09:56.877Z,209.03
2022-12-18T17:12:24.030Z,160.43
2022-12-18T17:14:51.252Z,109.90
2022-12-18T17:17:21.341Z,110.27
2022-12-18T17:19:51.019Z,108.10
2022-12-18T17:22:18.355Z,110.10
2022-12-18T17:24:46.370Z,115.27
2022-12-18T17:27:13.525Z,113.83
2022-12-18T17:29:46.806Z,104.47
2022-12-18T17:32:15.792Z,109.87
2022-12-18T17:34:42.876Z,113.40
2022-12-18T17:37:09.972Z,109.70
2022-12-18T17:39:37.486Z,110.43
2022-12-18T17:42:05.250Z,112.33
2022-12-18T17:44:34.459Z,113.97
2022-12-18T17:47:01.945Z,101.07
2022-12-18T17:49:29.307Z,109.93
2022-12-18T17:51:56.455Z,112.87
2022-12-18T17:54:23.497Z,109.23
2022-12-18T17:56:50.564Z,110.40
2022-12-18T17:59:17.661Z,102.53
2022-12-18T18:01:46.165Z,118.50
2022-12-18T18:04:14.247Z,111.37
2022-12-18T18:06:41.584Z,117.47
2022-12-18T18:09:15.943Z,126.40
2022-12-18T18:12:03.725Z,108.90
2022-12-18T18:14:31.131Z,105.33
2022-12-18T18:16:59.848Z,106.80
2022-12-18T18:19:32.370Z,121.77
2022-12-18T18:21:59.548Z,114.37
2022-12-18T18:24:26.713Z,112.37
2022-12-18T18:26:59.091Z,122.07
2022-12-18T18:29:27.879Z,114.60
2022-12-18T18:31:57.078Z,125.63
2022-12-18T18:34:26.389Z,128.13
2022-12-18T18:36:54.061Z,118.57
2022-12-18T18:39:21.289Z,130.40
2022-12-18T18:41:48.840Z,206.43
2022-12-18T18:44:16.842Z,161.90
2022-12-18T18:46:45.640Z,148.37
2022-12-18T18:49:14.355Z,132.30
2022-12-18T18:51:42.411Z,142.00
2022-12-18T18:54:10.165Z,129.63
2022-12-18T18:59:29.697Z,139.47
2022-12-18T19:04:31.967Z,137.80
2022-12-18T19:06:59.115Z,123.93
2022-12-18T19:09:26.634Z,127.73
2022-12-18T19:12:12.675Z,129.97
2022-12-18T19:14:39.899Z,126.60
2022-12-18T19:17:07.031Z,138.23
2022-12-18T19:19:34.283Z,123.00
2022-12-18T19:22:01.633Z,136.33
2022-12-18T19:24:28.844Z,121.20
2022-12-18T19:26:57.929Z,118.50
2022-12-18T19:29:25.743Z,126.10
2022-12-18T19:31:53.006Z,117.70
2022-12-18T19:34:20.191Z,128.27
2022-12-18T19:36:47.372Z,112.83
2022-12-18T19:39:19.221Z,115.73
2022-12-18T19:41:46.738Z,130.37
2022-12-18T19:44:18.153Z,119.33
2022-12-18T19:46:48.908Z,113.40
2022-12-18T19:49:18.107Z,122.93
2022-12-18T19:51:45.924Z,117.90
2022-12-18T19:54:17.182Z,121.23
2022-12-18T19:56:45.777Z,119.90
2022-12-18T19:59:13.599Z,120.33
2022-12-18T20:01:41.070Z,129.97
2022-12-18T20:04:08.405Z,130.10
2022-12-18T20:06:47.557Z,122.37
2022-12-18T20:09:15.223Z,114.93
2022-12-18T20:11:42.970Z,130.43
2022-12-18T20:14:11.696Z,124.07
2022-12-18T20:16:39.323Z,122.40
2022-12-18T20:19:09.598Z,125.90
2022-12-18T20:21:37.232Z,125.57
2022-12-18T20:24:04.672Z,124.43
2022-12-18T20:26:31.851Z,122.83
2022-12-18T20:28:59.047Z,123.43
2022-12-18T20:31:26.378Z,125.87
2022-12-18T20:33:54.564Z,137.63
2022-12-18T20:36:27.030Z,138.90
2022-12-18T20:38:58.127Z,134.27
2022-12-18T20:41:33.503Z,125.70
2022-12-18T20:44:05.942Z,136.77
2022-12-18T20:46:36.769Z,129.13
2022-12-18T20:49:03.804Z,142.83
2022-12-18T20:51:31.838Z,129.07
2022-12-18T20:53:59.822Z,138.47
2022-12-18T20:56:30.862Z,141.40
2022-12-18T20:59:00.020Z,194.60
2022-12-18T21:01:29.409Z,159.67
2022-12-18T21:03:56.586Z,135.60
2022-12-18T21:06:25.107Z,142.70
2022-12-18T21:08:52.715Z,141.00
2022-12-18T21:11:37.977Z,137.37
2022-12-18T21:14:20.261Z,162.57
2022-12-18T21:16:48.176Z,222.80
2022-12-18T21:19:20.096Z,167.50
2022-12-18T21:21:47.568Z,143.03
2022-12-18T21:24:15.285Z,154.40
2022-12-18T21:26:45.654Z,143.00
2022-12-18T21:29:16.323Z,155.37
2022-12-18T21:31:44.786Z,127.30
2022-12-18T21:34:17.463Z,150.97
2022-12-18T21:36:49.204Z,139.70
2022-12-18T21:39:16.782Z,142.70
2022-12-18T21:42:02.875Z,135.47
2022-12-18T21:44:30.341Z,128.50
2022-12-18T21:47:09.399Z,146.97
2022-12-18T21:49:41.732Z,133.73
2022-12-18T21:52:10.790Z,153.07
2022-12-18T21:54:37.897Z,139.67
2022-12-18T21:57:08.590Z,142.43
2022-12-18T21:59:38.858Z,134.83
2022-12-18T22:02:12.293Z,173.13
2022-12-18T22:04:40.143Z,140.50
2022-12-18T22:07:07.869Z,142.53
2022-12-18T22:09:35.407Z,143.13
2022-12-18T22:12:03.020Z,139.73
2022-12-18T22:14:30.082Z,141.70
2022-12-18T22:16:57.574Z,143.10
2022-12-18T22:19:25.745Z,141.47
2022-12-18T22:21:53.776Z,136.03
2022-12-18T22:24:26.837Z,143.70
2022-12-18T22:27:01.782Z,154.63
2022-12-18T22:29:47.975Z,132.57
2022-12-18T22:32:21.430Z,137.90
2022-12-18T22:35:09.203Z,125.97
2022-12-18T22:37:37.633Z,134.03
2022-12-18T22:40:07.237Z,143.83
2022-12-18T22:42:34.627Z,140.47
2022-12-18T22:45:01.738Z,134.10
2022-12-18T22:47:30.424Z,139.67
2022-12-18T22:49:58.658Z,149.30
2022-12-18T22:52:25.886Z,137.73
2022-12-18T22:54:54.263Z,140.97
2022-12-18T22:57:24.872Z,145.57
2022-12-18T22:59:51.967Z,152.40
2022-12-18T23:02:20.853Z,144.80
2022-12-18T23:04:48.154Z,130.60
2022-12-18T23:07:16.492Z,137.43
2022-12-18T23:09:44.180Z,148.53
2022-12-18T23:12:18.875Z,145.07
2022-12-18T23:14:47.368Z,157.23
2022-12-18T23:17:14.515Z,156.03
2022-12-18T23:19:47.095Z,138.40
2022-12-18T23:22:15.908Z,153.48
2022-12-18T23:24:42.994Z,152.33
2022-12-18T23:27:11.567Z,162.43
2022-12-18T23:29:39.947Z,149.53
2022-12-18T23:32:07.476Z,146.00
2022-12-18T23:34:34.888Z,155.40
2022-12-18T23:37:03.942Z,152.87
2022-12-18T23:39:31.536Z,148.60
2022-12-18T23:41:59.466Z,160.13
2022-12-18T23:44:26.961Z,143.60
2022-12-18T23:46:54.374Z,137.57
2022-12-18T23:49:21.649Z,161.83
2022-12-18T23:51:49.298Z,145.17
2022-12-18T23:54:16.599Z,155.30
2022-12-18T23:56:43.926Z,150.17
2022-12-18T23:59:11.264Z,148.57
